PWSweather.com
Personal Weather Stations
Station Observations
IESRVJEREZ
Ies Fco. Romero Vargas, Jerez De La FronteraES 11408

Ies Fco. Romero VargasJerez De La FronteraES 11408

Lat: 36.67203, Lon: -6.129915

Elevation: 98

Station Type: FWS 20

http://www.iesromerovargas.net/estacion_meteorologica/Cumulus/web/

High Low Average
Temperature 72.7°F22.6°C 59.0°F15.0°C 66.1°F18.9°C
Dew Point 62.6°F17.0°C 54.9°F12.7°C 58.2°F14.6°C
Winds 12.1 mph 19.5 kmh Calm Calm 5.0 mph WSW8.0 kmh WSW
Wind Gusts 22.8 mph36.7 kmh -- 9.0 mph14.5 kmh
Humidity 93% 59% 76%
Pressure 30.30 in1026.1 mb 30.15 in1021.0 mb -
Precipitation 0.11 in2.8 mm - -
Hour Temp Dew Point Humidity Winds Wind Gusts Pressure Precip Precip Rate Daily Precip Total
12:00 AM 66.0°F18.9°C 59.0°F15.0°C 78% 2.2 mph W3.5 kmh W 3.8 mph6.1 kmh 30.17 in1021.7 mb 0.00 in0.0 mm 0.00 in0.0 mm 0.00 in0.0 mm
12:15 AM 66.0°F18.9°C 59.0°F15.0°C 78% 2.2 mph W3.5 kmh W 3.8 mph6.1 kmh 30.17 in1021.7 mb 0.00 in0.0 mm 0.00 in0.0 mm 0.00 in0.0 mm
12:30 AM 66.0°F18.9°C 59.0°F15.0°C 78% 2.2 mph W3.5 kmh W 3.8 mph6.1 kmh 30.17 in1021.7 mb 0.00 in0.0 mm 0.00 in0.0 mm 0.00 in0.0 mm
12:45 AM 66.0°F18.9°C 59.0°F15.0°C 78% 2.2 mph W3.5 kmh W 3.8 mph6.1 kmh 30.17 in1021.7 mb 0.00 in0.0 mm 0.00 in0.0 mm 0.00 in0.0 mm
01:00 AM 66.0°F18.9°C 59.0°F15.0°C 78% 2.2 mph W3.5 kmh W 3.8 mph6.1 kmh 30.17 in1021.7 mb 0.00 in0.0 mm 0.00 in0.0 mm 0.00 in0.0 mm
01:15 AM 66.0°F18.9°C 59.0°F15.0°C 78% 2.2 mph W3.5 kmh W 3.8 mph6.1 kmh 30.17 in1021.7 mb 0.00 in0.0 mm 0.00 in0.0 mm 0.00 in0.0 mm
01:30 AM 63.5°F17.5°C 58.6°F14.8°C 84% 0.7 mph W1.1 kmh W 2.2 mph3.5 kmh 30.17 in1021.7 mb 0.00 in0.0 mm 0.00 in0.0 mm 0.00 in0.0 mm
01:45 AM 63.5°F17.5°C 58.6°F14.8°C 84% 0.7 mph W1.1 kmh W 2.2 mph3.5 kmh 30.17 in1021.7 mb 0.00 in0.0 mm 0.00 in0.0 mm 0.00 in0.0 mm
02:00 AM 63.5°F17.5°C 58.6°F14.8°C 84% 0.7 mph W1.1 kmh W 2.2 mph3.5 kmh 30.16 in1021.3 mb 0.00 in0.0 mm 0.00 in0.0 mm 0.00 in0.0 mm
02:15 AM 63.5°F17.5°C 58.6°F14.8°C 84% 0.7 mph W1.1 kmh W 2.2 mph3.5 kmh 30.17 in1021.7 mb 0.00 in0.0 mm 0.00 in0.0 mm 0.00 in0.0 mm
02:30 AM 63.5°F17.5°C 58.6°F14.8°C 84% 0.7 mph W1.1 kmh W 2.2 mph3.5 kmh 30.16 in1021.3 mb 0.00 in0.0 mm 0.00 in0.0 mm 0.00 in0.0 mm
02:45 AM 62.2°F16.8°C 57.7°F14.3°C 85% Calm Calm 1.6 mph2.6 kmh 30.16 in1021.3 mb 0.00 in0.0 mm 0.00 in0.0 mm 0.00 in0.0 mm
03:00 AM 61.9°F16.6°C 57.7°F14.3°C 86% Calm Calm 2.2 mph3.5 kmh 30.15 in1021.0 mb 0.00 in0.0 mm 0.00 in0.0 mm 0.00 in0.0 mm
03:15 AM 61.2°F16.2°C 57.3°F14.1°C 87% 0.7 mph SW1.1 kmh SW 2.2 mph3.5 kmh 30.15 in1021.0 mb 0.00 in0.0 mm 0.00 in0.0 mm 0.00 in0.0 mm
03:30 AM 61.2°F16.2°C 57.3°F14.1°C 87% 0.7 mph SW1.1 kmh SW 2.2 mph3.5 kmh 30.15 in1021.0 mb 0.00 in0.0 mm 0.00 in0.0 mm 0.00 in0.0 mm
03:45 AM 61.2°F16.2°C 57.3°F14.1°C 87% 0.7 mph SW1.1 kmh SW 2.2 mph3.5 kmh 30.15 in1021.0 mb 0.00 in0.0 mm 0.00 in0.0 mm 0.00 in0.0 mm
04:00 AM 61.2°F16.2°C 57.3°F14.1°C 87% 0.7 mph SW1.1 kmh SW 2.2 mph3.5 kmh 30.15 in1021.0 mb 0.00 in0.0 mm 0.00 in0.0 mm 0.00 in0.0 mm
04:15 AM 60.6°F15.9°C 57.4°F14.1°C 89% Calm Calm -- 30.15 in1021.0 mb 0.00 in0.0 mm 0.00 in0.0 mm 0.00 in0.0 mm
04:30 AM 60.6°F15.9°C 57.4°F14.1°C 89% Calm Calm -- 30.15 in1021.0 mb 0.00 in0.0 mm 0.00 in0.0 mm 0.00 in0.0 mm
04:45 AM 59.7°F15.4°C 56.5°F13.6°C 89% Calm Calm 1.6 mph2.6 kmh 30.16 in1021.3 mb 0.00 in0.0 mm 0.00 in0.0 mm 0.00 in0.0 mm
05:00 AM 59.5°F15.3°C 56.6°F13.7°C 90% 0.7 mph SSW1.1 kmh SSW 4.5 mph7.2 kmh 30.16 in1021.3 mb 0.00 in0.0 mm 0.00 in0.0 mm 0.00 in0.0 mm
05:15 AM 59.5°F15.3°C 56.6°F13.7°C 90% Calm Calm 1.6 mph2.6 kmh 30.15 in1021.0 mb 0.00 in0.0 mm 0.00 in0.0 mm 0.00 in0.0 mm
05:30 AM 59.2°F15.1°C 56.3°F13.5°C 90% Calm Calm 1.6 mph2.6 kmh 30.15 in1021.0 mb 0.00 in0.0 mm 0.00 in0.0 mm 0.00 in0.0 mm
05:45 AM 59.0°F15.0°C 56.4°F13.6°C 91% Calm Calm -- 30.16 in1021.3 mb 0.00 in0.0 mm 0.00 in0.0 mm 0.00 in0.0 mm
06:00 AM 59.2°F15.1°C 56.6°F13.7°C 91% Calm Calm 0.7 mph1.1 kmh 30.16 in1021.3 mb 0.00 in0.0 mm 0.00 in0.0 mm 0.00 in0.0 mm
06:15 AM 59.2°F15.1°C 56.6°F13.7°C 91% Calm Calm 0.7 mph1.1 kmh 30.16 in1021.3 mb 0.00 in0.0 mm 0.00 in0.0 mm 0.00 in0.0 mm
06:30 AM 59.2°F15.1°C 56.6°F13.7°C 91% Calm Calm 0.7 mph1.1 kmh 30.16 in1021.3 mb 0.00 in0.0 mm 0.00 in0.0 mm 0.00 in0.0 mm
06:45 AM 59.2°F15.1°C 56.6°F13.7°C 91% Calm Calm 0.7 mph1.1 kmh 30.17 in1021.7 mb 0.00 in0.0 mm 0.00 in0.0 mm 0.00 in0.0 mm
07:00 AM 61.9°F16.6°C 58.6°F14.8°C 89% Calm Calm -- 30.17 in1021.7 mb 0.00 in0.0 mm 0.00 in0.0 mm 0.00 in0.0 mm
07:15 AM 60.8°F16.0°C 57.2°F14.0°C 88% Calm Calm 0.7 mph1.1 kmh 30.17 in1021.7 mb 0.00 in0.0 mm 0.00 in0.0 mm 0.00 in0.0 mm
07:30 AM 64.8°F18.2°C 60.2°F15.7°C 85% 2.2 mph SSE3.5 kmh SSE 3.8 mph6.1 kmh 30.18 in1022.0 mb 0.00 in0.0 mm 0.00 in0.0 mm 0.00 in0.0 mm
07:45 AM 65.5°F18.6°C 59.2°F15.1°C 80% 2.2 mph SSE3.5 kmh SSE 3.8 mph6.1 kmh 30.17 in1021.7 mb 0.00 in0.0 mm 0.00 in0.0 mm 0.00 in0.0 mm
08:00 AM 67.3°F19.6°C 60.2°F15.7°C 78% Calm Calm 3.8 mph6.1 kmh 30.18 in1022.0 mb 0.00 in0.0 mm 0.00 in0.0 mm 0.00 in0.0 mm
08:15 AM 67.8°F19.9°C 59.6°F15.3°C 75% 0.7 mph SSE1.1 kmh SSE 3.8 mph6.1 kmh 30.18 in1022.0 mb 0.00 in0.0 mm 0.00 in0.0 mm 0.00 in0.0 mm
08:30 AM 68.7°F20.4°C 59.0°F15.0°C 71% 1.6 mph S2.6 kmh S 5.4 mph8.7 kmh 30.18 in1022.0 mb 0.00 in0.0 mm 0.00 in0.0 mm 0.00 in0.0 mm
08:45 AM 70.0°F21.1°C 59.8°F15.4°C 70% 1.6 mph S2.6 kmh S 3.1 mph5.0 kmh 30.18 in1022.0 mb 0.00 in0.0 mm 0.00 in0.0 mm 0.00 in0.0 mm
09:00 AM 69.6°F20.9°C 58.6°F14.8°C 68% 5.4 mph WSW8.7 kmh WSW 8.3 mph13.4 kmh 30.18 in1022.0 mb 0.00 in0.0 mm 0.00 in0.0 mm 0.00 in0.0 mm
09:15 AM 68.7°F20.4°C 58.6°F14.8°C 70% 7.6 mph WSW12.2 kmh WSW 12.1 mph19.5 kmh 30.19 in1022.4 mb 0.00 in0.0 mm 0.00 in0.0 mm 0.00 in0.0 mm
09:30 AM 68.7°F20.4°C 59.0°F15.0°C 71% 5.4 mph SW8.7 kmh SW 12.1 mph19.5 kmh 30.18 in1022.0 mb 0.00 in0.0 mm 0.00 in0.0 mm 0.00 in0.0 mm
09:45 AM 70.0°F21.1°C 59.4°F15.2°C 69% 5.4 mph WNW8.7 kmh WNW 13.0 mph20.9 kmh 30.19 in1022.4 mb 0.00 in0.0 mm 0.00 in0.0 mm 0.00 in0.0 mm
10:00 AM 70.2°F21.2°C 58.3°F14.6°C 66% 6.0 mph W9.7 kmh W 15.2 mph24.5 kmh 30.19 in1022.4 mb 0.00 in0.0 mm 0.00 in0.0 mm 0.00 in0.0 mm
10:15 AM 70.2°F21.2°C 58.3°F14.6°C 66% 9.2 mph SSW14.8 kmh SSW 15.9 mph25.6 kmh 30.19 in1022.4 mb 0.00 in0.0 mm 0.00 in0.0 mm 0.00 in0.0 mm
10:30 AM 71.4°F21.9°C 59.1°F15.1°C 65% 3.8 mph WNW6.1 kmh WNW 9.8 mph15.8 kmh 30.19 in1022.4 mb 0.00 in0.0 mm 0.00 in0.0 mm 0.00 in0.0 mm
10:45 AM 72.7°F22.6°C 58.9°F14.9°C 62% 8.3 mph SW13.4 kmh SW 13.0 mph20.9 kmh 30.20 in1022.7 mb 0.00 in0.0 mm 0.00 in0.0 mm 0.00 in0.0 mm
11:00 AM 72.0°F22.2°C 58.3°F14.6°C 62% 6.0 mph WSW9.7 kmh WSW 16.8 mph27.0 kmh 30.19 in1022.4 mb 0.00 in0.0 mm 0.00 in0.0 mm 0.00 in0.0 mm
11:15 AM 72.0°F22.2°C 58.3°F14.6°C 62% 6.0 mph WNW9.7 kmh WNW 16.8 mph27.0 kmh 30.20 in1022.7 mb 0.00 in0.0 mm 0.00 in0.0 mm 0.00 in0.0 mm
11:30 AM 70.3°F21.3°C 60.1°F15.6°C 70% 9.8 mph NW15.8 kmh NW 14.5 mph23.3 kmh 30.20 in1022.7 mb 0.00 in0.0 mm 0.00 in0.0 mm 0.00 in0.0 mm
11:45 AM 70.3°F21.3°C 58.0°F14.4°C 65% 12.1 mph W19.5 kmh W 19.7 mph31.7 kmh 30.20 in1022.7 mb 0.00 in0.0 mm 0.00 in0.0 mm 0.00 in0.0 mm
12:00 PM 68.5°F20.3°C 59.6°F15.3°C 73% 10.7 mph NW17.2 kmh NW 22.8 mph36.7 kmh 30.21 in1023.0 mb 0.01 in0.3 mm 0.01 in0.3 mm 0.01 in0.3 mm
12:15 PM 64.0°F17.8°C 61.1°F16.2°C 90% 3.8 mph WNW6.1 kmh WNW 15.2 mph24.5 kmh 30.22 in1023.4 mb 0.04 in1.0 mm 0.12 in3.0 mm 0.04 in1.0 mm
12:30 PM 64.0°F17.8°C 61.7°F16.5°C 92% 3.8 mph W6.1 kmh W 9.2 mph14.8 kmh 30.22 in1023.4 mb 0.05 in1.3 mm 0.04 in1.0 mm 0.05 in1.3 mm
12:45 PM 64.2°F17.9°C 62.2°F16.8°C 93% 1.6 mph W2.6 kmh W 7.6 mph12.2 kmh 30.22 in1023.4 mb 0.09 in2.3 mm 0.16 in4.1 mm 0.09 in2.3 mm
01:00 PM 65.3°F18.5°C 62.6°F17.0°C 91% 5.4 mph NW8.7 kmh NW 11.4 mph18.3 kmh 30.22 in1023.4 mb 0.08 in2.0 mm 0.00 in0.0 mm 0.09 in2.3 mm
01:15 PM 67.1°F19.5°C 62.5°F16.9°C 85% 8.3 mph NNW13.4 kmh NNW 13.6 mph21.9 kmh 30.22 in1023.4 mb 0.06 in1.5 mm 0.00 in0.0 mm 0.09 in2.3 mm
01:30 PM 68.9°F20.5°C 62.1°F16.7°C 79% 8.3 mph NW13.4 kmh NW 15.9 mph25.6 kmh 30.21 in1023.0 mb 0.05 in1.3 mm 0.00 in0.0 mm 0.09 in2.3 mm
01:45 PM 69.1°F20.6°C 61.6°F16.4°C 77% 6.9 mph NW11.1 kmh NW 13.0 mph20.9 kmh 30.22 in1023.4 mb 0.00 in0.0 mm 0.00 in0.0 mm 0.09 in2.3 mm
02:00 PM 69.4°F20.8°C 60.8°F16.0°C 74% 8.3 mph SW13.4 kmh SW 13.0 mph20.9 kmh 30.23 in1023.7 mb 0.00 in0.0 mm 0.00 in0.0 mm 0.09 in2.3 mm
02:15 PM 69.4°F20.8°C 60.8°F16.0°C 74% 8.3 mph SW13.4 kmh SW 13.0 mph20.9 kmh 30.23 in1023.7 mb 0.00 in0.0 mm 0.00 in0.0 mm 0.09 in2.3 mm
02:30 PM 69.4°F20.8°C 60.8°F16.0°C 74% 8.3 mph SW13.4 kmh SW 13.0 mph20.9 kmh 30.22 in1023.4 mb 0.00 in0.0 mm 0.00 in0.0 mm 0.09 in2.3 mm
02:45 PM 69.4°F20.8°C 60.8°F16.0°C 74% 8.3 mph SW13.4 kmh SW 13.0 mph20.9 kmh 30.22 in1023.4 mb 0.00 in0.0 mm 0.00 in0.0 mm 0.09 in2.3 mm
03:00 PM 69.4°F20.8°C 60.8°F16.0°C 74% 8.3 mph SW13.4 kmh SW 13.0 mph20.9 kmh 30.22 in1023.4 mb 0.00 in0.0 mm 0.00 in0.0 mm 0.09 in2.3 mm
03:15 PM 70.5°F21.4°C 57.3°F14.1°C 63% 9.2 mph W14.8 kmh W 14.5 mph23.3 kmh 30.22 in1023.4 mb 0.01 in0.3 mm 0.04 in1.0 mm 0.11 in2.8 mm
03:30 PM 70.5°F21.4°C 57.3°F14.1°C 63% 9.2 mph W14.8 kmh W 14.5 mph23.3 kmh 30.22 in1023.4 mb 0.01 in0.3 mm 0.00 in0.0 mm 0.11 in2.8 mm
03:45 PM 70.5°F21.4°C 57.3°F14.1°C 63% 9.2 mph W14.8 kmh W 14.5 mph23.3 kmh 30.22 in1023.4 mb 0.01 in0.3 mm 0.00 in0.0 mm 0.11 in2.8 mm
04:00 PM 70.5°F21.4°C 57.3°F14.1°C 63% 9.2 mph W14.8 kmh W 14.5 mph23.3 kmh 30.22 in1023.4 mb 0.01 in0.3 mm 0.00 in0.0 mm 0.11 in2.8 mm
04:15 PM 70.5°F21.4°C 57.3°F14.1°C 63% 9.2 mph W14.8 kmh W 14.5 mph23.3 kmh 30.23 in1023.7 mb 0.00 in0.0 mm 0.00 in0.0 mm 0.11 in2.8 mm
04:30 PM 70.5°F21.4°C 57.3°F14.1°C 63% 9.2 mph W14.8 kmh W 14.5 mph23.3 kmh 30.23 in1023.7 mb 0.00 in0.0 mm 0.00 in0.0 mm 0.11 in2.8 mm
04:45 PM 71.6°F22.0°C 57.0°F13.9°C 60% 6.9 mph NW11.1 kmh NW 13.0 mph20.9 kmh 30.24 in1024.0 mb 0.00 in0.0 mm 0.00 in0.0 mm 0.11 in2.8 mm
05:00 PM 71.6°F22.0°C 57.0°F13.9°C 60% 6.9 mph NW11.1 kmh NW 13.0 mph20.9 kmh 30.24 in1024.0 mb 0.00 in0.0 mm 0.00 in0.0 mm 0.11 in2.8 mm
05:15 PM 71.6°F22.0°C 57.0°F13.9°C 60% 6.9 mph NW11.1 kmh NW 13.0 mph20.9 kmh 30.23 in1023.7 mb 0.00 in0.0 mm 0.00 in0.0 mm 0.11 in2.8 mm
05:30 PM 70.9°F21.6°C 57.7°F14.3°C 63% 6.9 mph NW11.1 kmh NW 14.5 mph23.3 kmh 30.24 in1024.0 mb 0.00 in0.0 mm 0.00 in0.0 mm 0.11 in2.8 mm
05:45 PM 70.2°F21.2°C 56.6°F13.7°C 62% 7.6 mph WNW12.2 kmh WNW 16.8 mph27.0 kmh 30.24 in1024.0 mb 0.00 in0.0 mm 0.00 in0.0 mm 0.11 in2.8 mm
06:00 PM 70.9°F21.6°C 55.9°F13.3°C 59% 10.7 mph NW17.2 kmh NW 17.4 mph28.0 kmh 30.24 in1024.0 mb 0.00 in0.0 mm 0.00 in0.0 mm 0.11 in2.8 mm
06:15 PM 70.2°F21.2°C 57.4°F14.1°C 64% 11.4 mph WNW18.3 kmh WNW 15.9 mph25.6 kmh 30.25 in1024.4 mb 0.00 in0.0 mm 0.00 in0.0 mm 0.11 in2.8 mm
06:30 PM 68.7°F20.4°C 58.6°F14.8°C 70% 9.8 mph W15.8 kmh W 15.9 mph25.6 kmh 30.24 in1024.0 mb 0.00 in0.0 mm 0.00 in0.0 mm 0.11 in2.8 mm
06:45 PM 68.9°F20.5°C 56.7°F13.7°C 65% 6.9 mph W11.1 kmh W 15.2 mph24.5 kmh 30.24 in1024.0 mb 0.00 in0.0 mm 0.00 in0.0 mm 0.11 in2.8 mm
07:00 PM 69.3°F20.7°C 56.2°F13.4°C 63% 6.9 mph WNW11.1 kmh WNW 12.1 mph19.5 kmh 30.24 in1024.0 mb 0.00 in0.0 mm 0.00 in0.0 mm 0.11 in2.8 mm
07:15 PM 68.4°F20.2°C 54.9°F12.7°C 62% 6.9 mph W11.1 kmh W 11.4 mph18.3 kmh 30.24 in1024.0 mb 0.00 in0.0 mm 0.00 in0.0 mm 0.11 in2.8 mm
07:30 PM 67.5°F19.7°C 56.6°F13.7°C 68% 10.7 mph WNW17.2 kmh WNW 15.9 mph25.6 kmh 30.24 in1024.0 mb 0.00 in0.0 mm 0.00 in0.0 mm 0.11 in2.8 mm
07:45 PM 67.1°F19.5°C 56.2°F13.4°C 68% 7.6 mph W12.2 kmh W 13.0 mph20.9 kmh 30.25 in1024.4 mb 0.00 in0.0 mm 0.00 in0.0 mm 0.11 in2.8 mm
08:00 PM 66.6°F19.2°C 56.5°F13.6°C 70% 5.4 mph NW8.7 kmh NW 9.8 mph15.8 kmh 30.25 in1024.4 mb 0.00 in0.0 mm 0.00 in0.0 mm 0.11 in2.8 mm
08:15 PM 66.4°F19.1°C 57.1°F13.9°C 72% 5.4 mph WNW8.7 kmh WNW 11.4 mph18.3 kmh 30.25 in1024.4 mb 0.00 in0.0 mm 0.00 in0.0 mm 0.11 in2.8 mm
08:30 PM 65.8°F18.8°C 57.3°F14.1°C 74% 7.6 mph WNW12.2 kmh WNW 11.4 mph18.3 kmh 30.26 in1024.7 mb 0.00 in0.0 mm 0.00 in0.0 mm 0.11 in2.8 mm
08:45 PM 65.3°F18.5°C 57.9°F14.4°C 77% 6.0 mph NW9.7 kmh NW 10.7 mph17.2 kmh 30.26 in1024.7 mb 0.00 in0.0 mm 0.00 in0.0 mm 0.11 in2.8 mm
09:00 PM 64.9°F18.3°C 58.6°F14.8°C 80% 4.5 mph NW7.2 kmh NW 9.8 mph15.8 kmh 30.26 in1024.7 mb 0.00 in0.0 mm 0.00 in0.0 mm 0.11 in2.8 mm
09:15 PM 64.8°F18.2°C 57.4°F14.1°C 77% 6.9 mph WNW11.1 kmh WNW 12.1 mph19.5 kmh 30.27 in1025.1 mb 0.00 in0.0 mm 0.00 in0.0 mm 0.11 in2.8 mm
09:30 PM 64.2°F17.9°C 56.1°F13.4°C 75% 6.9 mph NW11.1 kmh NW 11.4 mph18.3 kmh 30.27 in1025.1 mb 0.00 in0.0 mm 0.00 in0.0 mm 0.11 in2.8 mm
09:45 PM 63.9°F17.7°C 56.9°F13.8°C 78% 6.0 mph WNW9.7 kmh WNW 11.4 mph18.3 kmh 30.27 in1025.1 mb 0.00 in0.0 mm 0.00 in0.0 mm 0.11 in2.8 mm
10:00 PM 63.9°F17.7°C 57.2°F14.0°C 79% 6.0 mph W9.7 kmh W 11.4 mph18.3 kmh 30.28 in1025.4 mb 0.00 in0.0 mm 0.00 in0.0 mm 0.11 in2.8 mm
10:15 PM 63.9°F17.7°C 57.2°F14.0°C 79% 6.0 mph NW9.7 kmh NW 9.2 mph14.8 kmh 30.29 in1025.7 mb 0.00 in0.0 mm 0.00 in0.0 mm 0.11 in2.8 mm
10:30 PM 63.9°F17.7°C 57.6°F14.2°C 80% 4.5 mph WNW7.2 kmh WNW 9.8 mph15.8 kmh 30.29 in1025.7 mb 0.00 in0.0 mm 0.00 in0.0 mm 0.11 in2.8 mm
10:45 PM 63.5°F17.5°C 57.2°F14.0°C 80% 6.0 mph NW9.7 kmh NW 8.3 mph13.4 kmh 30.28 in1025.4 mb 0.00 in0.0 mm 0.00 in0.0 mm 0.11 in2.8 mm
11:00 PM 63.3°F17.4°C 57.1°F13.9°C 80% 4.5 mph W7.2 kmh W 9.8 mph15.8 kmh 30.28 in1025.4 mb 0.00 in0.0 mm 0.00 in0.0 mm 0.10 in2.5 mm
11:15 PM 63.1°F17.3°C 57.2°F14.0°C 81% 3.1 mph WNW5.0 kmh WNW 6.9 mph11.1 kmh 30.29 in1025.7 mb 0.00 in0.0 mm 0.00 in0.0 mm 0.10 in2.5 mm
11:30 PM 62.6°F17.0°C 56.7°F13.7°C 81% 3.8 mph WNW6.1 kmh WNW 6.9 mph11.1 kmh 30.30 in1026.1 mb 0.00 in0.0 mm 0.00 in0.0 mm 0.10 in2.5 mm
11:45 PM 62.6°F17.0°C 56.0°F13.3°C 79% 2.2 mph W3.5 kmh W 6.0 mph9.7 kmh 30.29 in1025.7 mb 0.00 in0.0 mm 0.00 in0.0 mm 0.10 in2.5 mm